Time;durP1;ratioP1;P1;durP2;ratioP2;P2;SDS_P1;SDS_P2;PMS_P1;PMS_P2;Temp;Humidity;BMP_temperature;BMP_pressure;BME280_temperature;BME280_humidity;BME280_pressure;Samples;Min_cycle;Max_cycle;Signal;HPM_P1;HPM_P2
2022/11/16 00:01:31;;;;;;;111.50;64.90;;;;;;;7.35;87.87;98043.36;86457;1291;22666;-73
2022/11/16 00:03:34;;;;;;;117.30;70.40;;;;;;;7.35;87.66;98043.50;86200;1300;99115;-74
2022/11/16 00:05:35;;;;;;;120.20;72.30;;;;;;;7.36;87.76;98043.46;86061;1290;22552;-73
2022/11/16 00:07:37;;;;;;;126.60;73.20;;;;;;;7.36;87.72;98044.87;86169;1301;22513;-76
2022/11/16 00:09:39;;;;;;;127.40;76.50;;;;;;;7.34;87.78;98038.50;85868;1286;98603;-73
2022/11/16 00:11:41;;;;;;;126.80;79.30;;;;;;;7.33;87.68;98036.61;86322;1300;22652;-75
2022/11/16 00:13:43;;;;;;;137.80;83.50;;;;;;;7.33;87.48;98040.11;86348;1289;22478;-75
2022/11/16 00:15:57;;;;;;;147.70;84.10;;;;;;;7.32;87.82;98036.46;86198;1283;99517;-73
2022/11/16 00:17:59;;;;;;;147.00;85.90;;;;;;;7.33;87.53;98035.39;86371;1300;22740;-74
2022/11/16 00:20:00;;;;;;;145.70;82.60;;;;;;;7.26;87.61;98018.09;86469;1307;22632;-73
2022/11/16 00:22:02;;;;;;;129.40;76.10;;;;;;;7.32;87.70;98027.38;86408;1291;98673;-75
2022/11/16 00:24:05;;;;;;;122.70;77.40;;;;;;;7.30;87.77;98029.42;86324;1287;23896;-74
2022/11/16 00:26:11;;;;;;;134.00;80.10;;;;;;;7.29;87.74;98026.65;86544;1291;22507;-74
2022/11/16 00:28:13;;;;;;;151.30;85.60;;;;;;;7.31;87.86;98026.05;86759;1283;100201;-73
2022/11/16 00:30:15;;;;;;;140.60;83.40;;;;;;;7.32;87.62;98020.23;86428;1283;22538;-75
2022/11/16 00:32:17;;;;;;;147.00;83.20;;;;;;;7.30;87.90;98014.89;86508;1288;23143;-75
2022/11/16 00:34:20;;;;;;;129.90;76.70;;;;;;;7.31;87.54;98015.74;86338;1291;99676;-72
2022/11/16 00:36:22;;;;;;;124.70;76.20;;;;;;;7.33;87.71;98014.95;86487;1291;22592;-72
2022/11/16 00:38:24;;;;;;;124.90;76.00;;;;;;;7.35;87.93;98015.55;86299;1290;23046;-74
2022/11/16 00:40:27;;;;;;;125.50;78.50;;;;;;;7.36;87.82;98012.89;86477;1284;98311;-75
2022/11/16 00:42:29;;;;;;;132.20;80.30;;;;;;;7.37;87.86;98015.29;86312;1291;22497;-74
2022/11/16 00:44:31;;;;;;;127.40;78.80;;;;;;;7.38;87.95;98015.59;86349;1291;22500;-75
2022/11/16 00:46:39;;;;;;;133.20;78.10;;;;;;;7.40;87.92;98022.48;87013;1295;22487;-72
2022/11/16 00:48:41;;;;;;;136.30;80.20;;;;;;;7.40;87.74;98024.72;86761;1288;23292;-73
2022/11/16 00:50:46;;;;;;;135.50;81.20;;;;;;;7.41;87.68;98025.39;86457;1291;99876;-74
2022/11/16 00:52:47;;;;;;;145.30;84.00;;;;;;;7.43;87.81;98026.70;86593;1289;22510;-74
2022/11/16 00:54:49;;;;;;;155.50;88.20;;;;;;;7.43;87.96;98023.69;86536;1287;23039;-73
2022/11/16 00:56:51;;;;;;;149.50;83.70;;;;;;;7.44;87.94;98020.84;86369;1284;100022;-73
2022/11/16 00:58:53;;;;;;;149.10;82.10;;;;;;;7.45;87.78;98016.59;86541;1297;22563;-73
2022/11/16 01:00:54;;;;;;;133.60;80.20;;;;;;;7.46;87.86;98010.64;86763;1289;22548;-74
2022/11/16 01:02:57;;;;;;;133.70;77.80;;;;;;;7.46;88.02;98013.40;86717;1289;99944;-73
2022/11/16 01:04:59;;;;;;;124.40;77.00;;;;;;;7.47;87.69;98014.08;86591;1284;22737;-72
2022/11/16 01:07:01;;;;;;;140.60;78.30;;;;;;;7.48;87.90;98014.34;86416;1284;25654;-73
2022/11/16 01:09:03;;;;;;;140.60;81.90;;;;;;;7.49;88.10;98016.95;86287;1291;99631;-74
2022/11/16 01:13:27;;;;;;;150.00;84.20;;;;;;;7.48;88.18;98017.00;86300;1290;24247;-72
2022/11/16 01:15:29;;;;;;;143.80;83.40;;;;;;;7.47;88.08;98017.73;86333;1281;99766;-72
2022/11/16 01:17:31;;;;;;;145.90;84.50;;;;;;;7.47;88.16;98016.15;86246;1288;24452;-73
2022/11/16 01:19:33;;;;;;;134.20;81.30;;;;;;;7.47;87.75;98013.88;86327;1287;22538;-73
2022/11/16 01:21:35;;;;;;;134.30;80.50;;;;;;;7.47;87.79;98007.05;86201;1284;99862;-73
2022/11/16 01:23:37;;;;;;;141.00;83.20;;;;;;;7.45;87.83;98004.90;86451;1288;22489;-74
2022/11/16 01:25:38;;;;;;;142.20;84.20;;;;;;;7.43;87.74;98002.70;86385;1291;22532;-73
2022/11/16 01:27:42;;;;;;;148.00;82.80;;;;;;;7.43;88.00;97999.43;86367;1289;98511;-74
2022/11/16 01:29:44;;;;;;;143.50;80.60;;;;;;;7.41;88.04;97995.84;86452;1284;23205;-75
2022/11/16 01:31:46;;;;;;;140.00;82.50;;;;;;;7.41;87.63;97997.27;86483;1291;26108;-74
2022/11/16 01:33:49;;;;;;;133.00;81.80;;;;;;;7.40;88.08;97996.23;86592;1291;100006;-74
2022/11/16 01:35:51;;;;;;;134.60;80.40;;;;;;;7.41;87.74;97990.27;86300;1296;22467;-75
2022/11/16 01:37:52;;;;;;;142.10;83.50;;;;;;;7.42;88.00;97988.10;86486;1287;22523;-73
2022/11/16 01:39:55;;;;;;;139.20;84.40;;;;;;;7.43;88.08;97987.33;86247;1284;98515;-74
2022/11/16 01:41:59;;;;;;;140.80;83.50;;;;;;;7.45;88.12;97985.88;86438;1288;22478;-75
2022/11/16 01:44:04;;;;;;;130.60;82.50;;;;;;;7.45;88.15;97982.00;86707;1278;22470;-75
2022/11/16 01:46:06;;;;;;;137.80;83.80;;;;;;;7.46;88.09;97976.17;86389;1293;99576;-75
2022/11/16 01:48:12;;;;;;;153.20;84.70;;;;;;;7.46;88.26;97972.67;86655;1304;23255;-75
2022/11/16 01:50:16;;;;;;;153.40;84.70;;;;;;;7.46;87.73;97969.74;86543;1283;22515;-76
2022/11/16 01:52:22;;;;;;;144.90;84.20;;;;;;;7.45;88.01;97968.18;86383;1291;98725;-76
2022/11/16 01:54:25;;;;;;;139.80;83.30;;;;;;;7.45;88.34;97963.30;86410;1291;22549;-76
2022/11/16 01:56:29;;;;;;;144.70;85.80;;;;;;;7.44;88.18;97963.01;86578;1294;22513;-76
2022/11/16 01:58:30;;;;;;;149.00;84.90;;;;;;;7.43;87.93;97963.05;86462;1313;98746;-75
2022/11/16 02:00:33;;;;;;;155.90;86.90;;;;;;;7.43;88.23;97958.00;86524;1289;22462;-75
2022/11/16 02:02:34;;;;;;;150.40;83.10;;;;;;;7.43;88.27;97959.39;86609;1291;22485;-74
2022/11/16 02:04:36;;;;;;;147.70;84.70;;;;;;;7.43;87.99;97955.38;86503;1288;99203;-75
2022/11/16 02:07:15;;;;;;;132.10;80.00;;;;;;;7.42;88.21;97953.48;86440;1291;22471;-74
2022/11/16 02:12:19;;;;;;;130.70;78.10;;;;;;;7.43;88.26;97938.95;86726;1295;23043;-74
2022/11/16 02:14:52;;;;;;;121.10;73.20;;;;;;;7.43;88.08;97930.39;86849;1286;22532;-75
2022/11/16 02:17:32;;;;;;;133.00;75.60;;;;;;;7.39;88.04;97923.77;86568;1312;24791;-76
2022/11/16 02:19:52;;;;;;;124.40;71.00;;;;;;;7.37;88.20;97923.54;86664;1285;22482;-74
2022/11/16 02:22:12;;;;;;;129.70;75.10;;;;;;;7.37;88.13;97927.05;86562;1287;99816;-76
2022/11/16 02:24:39;;;;;;;133.60;78.80;;;;;;;7.38;88.03;97930.31;86789;1312;22472;-76
2022/11/16 02:27:07;;;;;;;150.70;81.20;;;;;;;7.36;88.13;97931.60;86617;1295;22686;-77
2022/11/16 02:29:17;;;;;;;129.40;78.60;;;;;;;7.37;88.37;97926.52;86803;1312;22672;-77
2022/11/16 02:31:26;;;;;;;143.50;75.40;;;;;;;7.37;88.21;97920.92;86819;1288;22129;-76
2022/11/16 02:33:35;;;;;;;131.00;77.10;;;;;;;7.36;88.06;97917.80;86791;1313;98821;-75
2022/11/16 02:35:45;;;;;;;158.90;79.00;;;;;;;7.34;88.15;97914.24;86760;1313;22499;-76
2022/11/16 02:38:00;;;;;;;171.50;76.20;;;;;;;7.33;88.37;97910.10;86794;1312;21651;-74
2022/11/16 02:40:09;;;;;;;163.60;80.80;;;;;;;7.32;88.60;97906.95;86677;1287;98611;-76
2022/11/16 02:42:17;;;;;;;164.70;79.50;;;;;;;7.34;88.08;97903.95;86797;1314;22427;-74
2022/11/16 02:44:25;;;;;;;159.30;77.90;;;;;;;7.36;88.09;97901.75;86939;1292;22466;-76
2022/11/16 02:46:35;;;;;;;147.20;79.20;;;;;;;7.38;88.33;97899.39;86794;1314;98703;-76
2022/11/16 02:48:46;;;;;;;153.60;80.40;;;;;;;7.37;88.58;97894.16;87085;1307;22184;-76
2022/11/16 02:50:53;;;;;;;168.50;81.30;;;;;;;7.37;88.26;97893.11;88141;1297;21930;-77
2022/11/16 02:52:55;;;;;;;145.90;81.90;;;;;;;7.39;88.38;97893.73;88225;1313;22566;-78
2022/11/16 02:54:58;;;;;;;150.70;82.80;;;;;;;7.40;88.33;97890.90;87962;1312;22528;-77
2022/11/16 02:57:02;;;;;;;153.60;84.90;;;;;;;7.41;88.32;97887.33;87999;1313;98462;-76
2022/11/16 02:59:04;;;;;;;157.20;85.00;;;;;;;7.42;88.51;97890.95;88077;1312;22526;-76
2022/11/16 03:01:17;;;;;;;150.60;87.00;;;;;;;7.42;88.39;97889.88;87257;1312;22501;-74
2022/11/16 03:03:25;;;;;;;159.90;87.30;;;;;;;7.43;88.42;97886.84;87051;1306;98680;-74
2022/11/16 03:05:32;;;;;;;152.90;87.50;;;;;;;7.43;88.33;97883.34;86968;1307;22552;-75
2022/11/16 03:07:42;;;;;;;168.40;91.40;;;;;;;7.44;88.35;97885.76;86666;1291;22496;-74
2022/11/16 03:09:47;;;;;;;165.50;89.10;;;;;;;7.44;88.55;97887.34;86693;1301;98810;-74
2022/11/16 03:11:59;;;;;;;138.90;85.90;;;;;;;7.43;88.47;97887.55;86773;1292;22524;-76
2022/11/16 03:14:06;;;;;;;150.90;83.40;;;;;;;7.43;88.44;97885.31;86640;1291;22543;-74
2022/11/16 03:16:22;;;;;;;160.80;88.30;;;;;;;7.43;88.28;97884.09;86458;1290;99926;-75
2022/11/16 03:18:27;;;;;;;161.30;86.50;;;;;;;7.42;88.38;97885.49;86619;1313;22767;-75
2022/11/16 03:20:34;;;;;;;166.10;86.80;;;;;;;7.42;88.58;97882.70;86715;1292;22518;-75
2022/11/16 03:22:48;;;;;;;151.60;82.30;;;;;;;7.42;88.72;97878.51;86757;1287;99794;-77
2022/11/16 03:24:50;;;;;;;155.80;85.50;;;;;;;7.43;88.43;97877.80;86760;1287;23714;-75
2022/11/16 03:27:10;;;;;;;150.20;83.10;;;;;;;7.42;88.45;97877.12;86397;1294;23574;-74
2022/11/16 03:29:36;;;;;;;148.30;82.80;;;;;;;7.42;88.42;97879.04;86598;1312;24277;-73
2022/11/16 03:31:46;;;;;;;135.90;77.90;;;;;;;7.43;88.58;97881.77;86632;1294;22702;-75
2022/11/16 03:33:54;;;;;;;147.50;80.40;;;;;;;7.42;88.61;97886.71;86529;1292;98635;-74
2022/11/16 03:36:12;;;;;;;138.50;78.90;;;;;;;7.42;88.68;97886.04;86630;1290;22518;-75
2022/11/16 03:38:15;;;;;;;158.60;74.50;;;;;;;7.42;88.60;97887.08;86663;1287;23013;-74
2022/11/16 03:40:20;;;;;;;138.80;77.20;;;;;;;7.41;88.38;97881.02;86306;1291;99134;-74
2022/11/16 03:42:24;;;;;;;214.20;81.90;;;;;;;7.40;88.27;97878.95;86661;1285;23858;-75
2022/11/16 03:44:28;;;;;;;133.20;72.80;;;;;;;7.41;88.51;97876.14;86766;1291;26704;-74
2022/11/16 03:46:31;;;;;;;128.80;74.50;;;;;;;7.41;88.41;97871.39;86845;1314;99933;-75
2022/11/16 03:48:38;;;;;;;130.40;77.00;;;;;;;7.43;88.55;97869.41;86707;1289;23655;-74
2022/11/16 03:50:41;;;;;;;134.20;74.80;;;;;;;7.44;88.55;97865.52;86766;1287;22538;-74
2022/11/16 03:52:43;;;;;;;144.20;74.20;;;;;;;7.42;88.58;97866.27;86493;1291;99806;-75
2022/11/16 03:54:46;;;;;;;140.30;76.40;;;;;;;7.42;88.73;97864.56;86632;1298;23057;-78
2022/11/16 03:56:47;;;;;;;148.20;81.20;;;;;;;7.42;88.44;97860.36;86631;1298;25300;-74
2022/11/16 03:58:49;;;;;;;152.20;81.00;;;;;;;7.43;88.57;97861.01;86520;1290;98774;-73
2022/11/16 04:00:52;;;;;;;155.00;84.80;;;;;;;7.44;88.68;97861.30;86573;1291;23695;-74
2022/11/16 04:02:54;;;;;;;141.90;82.40;;;;;;;7.45;88.75;97863.35;86645;1291;23247;-74
2022/11/16 04:26:10;;;;;;;138.40;82.20;;;;;;;7.44;88.86;97841.03;86577;1288;22440;-74
2022/11/16 04:28:13;;;;;;;159.40;86.50;;;;;;;7.43;88.79;97835.83;86490;1287;99758;-74
2022/11/16 04:30:16;;;;;;;149.60;85.10;;;;;;;7.43;88.61;97836.17;86751;1291;22970;-74
2022/11/16 04:39:19;;;;;;;145.40;85.80;;;;;;;7.41;88.75;97837.84;86604;1287;100144;-74
2022/11/16 04:43:43;;;;;;;164.90;92.90;;;;;;;7.40;88.58;97841.27;86632;1298;22522;-74
2022/11/16 04:48:06;;;;;;;160.40;89.50;;;;;;;7.40;88.84;97836.88;86601;1291;22613;-73
2022/11/16 04:50:09;;;;;;;203.90;94.20;;;;;;;7.40;88.55;97837.23;86525;1292;22516;-73
2022/11/16 04:52:11;;;;;;;210.30;97.10;;;;;;;7.40;88.63;97838.26;86430;1288;99978;-73
2022/11/16 04:54:12;;;;;;;158.00;92.80;;;;;;;7.41;88.64;97833.86;86431;1290;22585;-74
2022/11/16 04:56:17;;;;;;;167.50;92.80;;;;;;;7.41;88.44;97839.05;86711;1289;22546;-74
2022/11/16 04:58:18;;;;;;;174.50;96.00;;;;;;;7.41;88.79;97837.30;86532;1281;99766;-75
2022/11/16 05:00:20;;;;;;;179.60;97.30;;;;;;;7.41;88.70;97836.45;86778;1288;23681;-74
2022/11/16 05:02:22;;;;;;;175.00;94.10;;;;;;;7.41;88.66;97834.00;86713;1312;22527;-76
2022/11/16 05:04:24;;;;;;;168.30;95.00;;;;;;;7.42;88.73;97830.81;86888;1296;98520;-75
2022/11/16 05:06:26;;;;;;;172.70;96.30;;;;;;;7.43;88.94;97828.30;87181;1313;22446;-77
2022/11/16 05:08:28;;;;;;;159.60;94.50;;;;;;;7.44;89.13;97825.61;87320;1294;22413;-76
2022/11/16 05:10:30;;;;;;;161.50;92.20;;;;;;;7.44;88.84;97827.19;87680;1313;98382;-75
2022/11/16 05:12:33;;;;;;;167.20;96.50;;;;;;;7.44;88.89;97823.34;87289;1315;22573;-74
2022/11/16 05:14:35;;;;;;;168.00;94.40;;;;;;;7.44;88.73;97824.59;86984;1297;22269;-74
2022/11/16 05:16:37;;;;;;;168.60;94.20;;;;;;;7.44;88.74;97822.31;86604;1294;99656;-76
2022/11/16 05:18:38;;;;;;;185.80;95.10;;;;;;;7.44;88.98;97819.88;86861;1289;22680;-74
2022/11/16 05:23:03;;;;;;;176.50;91.50;;;;;;;7.43;88.68;97815.55;86771;1287;22770;-76
2022/11/16 05:25:07;;;;;;;176.60;95.80;;;;;;;7.46;88.84;97818.52;86658;1297;22434;-75
2022/11/16 05:27:13;;;;;;;194.00;95.30;;;;;;;7.46;88.77;97819.95;86592;1292;99887;-74
2022/11/16 05:29:15;;;;;;;175.70;92.30;;;;;;;7.45;88.71;97814.23;86627;1296;22611;-74
2022/11/16 05:31:17;;;;;;;178.40;90.80;;;;;;;7.45;88.70;97818.05;86473;1286;25547;-74
2022/11/16 05:33:20;;;;;;;190.10;103.80;;;;;;;7.46;88.70;97816.23;86204;1290;98602;-77
2022/11/16 05:35:21;;;;;;;190.50;92.70;;;;;;;7.46;88.69;97819.05;86542;1288;22670;-73
2022/11/16 05:37:25;;;;;;;167.80;94.00;;;;;;;7.45;88.97;97812.63;86622;1292;24261;-74
2022/11/16 05:39:28;;;;;;;170.10;93.00;;;;;;;7.47;88.82;97819.34;86275;1296;99680;-74
2022/11/16 05:41:30;;;;;;;173.70;94.10;;;;;;;7.47;88.54;97815.68;86585;1287;25681;-75
2022/11/16 05:43:33;;;;;;;186.90;94.90;;;;;;;7.49;88.80;97815.04;86684;1287;22586;-75
2022/11/16 05:45:35;;;;;;;186.00;94.50;;;;;;;7.50;88.97;97814.30;86457;1292;99645;-75
2022/11/16 05:47:39;;;;;;;184.30;88.70;;;;;;;7.50;88.88;97812.19;86472;1290;25390;-75
2022/11/16 05:49:41;;;;;;;173.50;91.40;;;;;;;7.50;88.58;97809.23;86359;1315;23017;-75
2022/11/16 05:51:44;;;;;;;184.20;93.50;;;;;;;7.50;88.60;97810.45;86146;1287;99433;-74
2022/11/16 05:53:48;;;;;;;173.40;89.40;;;;;;;7.49;88.89;97806.64;86223;1287;22769;-75
2022/11/16 05:55:50;;;;;;;163.90;90.00;;;;;;;7.50;88.86;97806.96;86134;1288;22581;-75
2022/11/16 05:57:52;;;;;;;163.70;87.10;;;;;;;7.49;88.34;97804.18;85881;1290;99741;-74
2022/11/16 05:59:54;;;;;;;170.90;87.80;;;;;;;7.49;88.65;97804.77;86141;1287;22567;-75
2022/11/16 06:01:56;;;;;;;150.30;87.10;;;;;;;7.49;88.96;97798.30;86197;1287;22630;-74
2022/11/16 06:03:59;;;;;;;155.00;87.00;;;;;;;7.47;89.00;97800.63;86112;1289;99700;-75
2022/11/16 06:06:03;;;;;;;147.80;84.90;;;;;;;7.45;88.85;97799.17;86336;1287;25898;-74
2022/11/16 06:08:05;;;;;;;158.10;87.50;;;;;;;7.46;88.94;97796.17;86199;1287;25454;-76
2022/11/16 06:10:07;;;;;;;193.40;88.20;;;;;;;7.45;88.88;97797.94;86068;1287;99662;-75
2022/11/16 06:12:08;;;;;;;173.80;88.80;;;;;;;7.46;88.82;97797.55;86100;1294;22545;-75
2022/11/16 06:14:10;;;;;;;156.30;85.90;;;;;;;7.47;89.04;97795.59;85961;1296;22562;-75
2022/11/16 06:16:12;;;;;;;187.50;89.90;;;;;;;7.47;88.79;97794.56;86134;1294;99544;-75
2022/11/16 06:18:14;;;;;;;180.40;85.40;;;;;;;7.47;89.15;97795.56;85961;1295;22973;-74
2022/11/16 06:20:16;;;;;;;148.10;81.70;;;;;;;7.48;88.99;97798.86;86088;1292;22778;-75
2022/11/16 06:22:18;;;;;;;144.40;81.70;;;;;;;7.47;88.71;97795.08;85943;1287;99623;-73
2022/11/16 06:24:20;;;;;;;147.50;83.00;;;;;;;7.45;88.94;97797.63;85935;1290;22553;-74
2022/11/16 06:26:21;;;;;;;144.50;82.20;;;;;;;7.43;88.79;97793.55;86076;1287;25294;-75
2022/11/16 06:28:24;;;;;;;149.50;80.90;;;;;;;7.43;88.77;97792.52;86094;1289;99671;-75
2022/11/16 06:30:25;;;;;;;181.60;88.80;;;;;;;7.42;88.63;97791.66;86257;1293;22622;-75
2022/11/16 06:32:27;;;;;;;180.40;86.70;;;;;;;7.42;88.73;97790.78;86046;1291;25375;-75
2022/11/16 06:34:29;;;;;;;159.60;86.70;;;;;;;7.43;88.89;97788.66;86049;1287;99583;-76
2022/11/16 06:36:33;;;;;;;166.70;88.00;;;;;;;7.42;88.78;97791.12;86162;1286;24173;-76
2022/11/16 06:38:34;;;;;;;162.90;87.40;;;;;;;7.42;88.80;97790.27;86184;1289;22569;-75
2022/11/16 06:40:37;;;;;;;166.80;85.50;;;;;;;7.41;88.62;97787.91;85874;1290;99632;-75
2022/11/16 06:42:38;;;;;;;152.20;80.10;;;;;;;7.40;88.86;97784.10;86164;1294;28011;-75
2022/11/16 06:44:40;;;;;;;147.00;81.50;;;;;;;7.38;88.84;97781.57;86027;1289;22501;-73
2022/11/16 06:46:42;;;;;;;146.20;80.70;;;;;;;7.38;88.95;97782.83;85914;1287;100044;-73
2022/11/16 06:48:43;;;;;;;145.70;83.90;;;;;;;7.36;88.61;97778.54;86091;1287;22578;-74
2022/11/16 06:50:51;;;;;;;167.40;89.60;;;;;;;7.35;89.11;97780.17;85889;1290;22480;-75
2022/11/16 06:52:52;;;;;;;175.10;96.90;;;;;;;7.35;88.70;97779.83;85804;1290;98380;-74
2022/11/16 06:54:54;;;;;;;181.80;94.20;;;;;;;7.33;89.08;97772.36;86001;1297;22498;-75
2022/11/16 06:56:56;;;;;;;174.30;91.90;;;;;;;7.35;89.48;97771.63;86123;1287;23598;-76
2022/11/16 06:59:00;;;;;;;166.90;92.80;;;;;;;7.35;89.00;97768.98;85914;1289;98828;-74
2022/11/16 07:01:06;;;;;;;178.90;90.70;;;;;;;7.35;89.13;97767.91;85967;1289;22514;-74
2022/11/16 07:03:10;;;;;;;163.90;89.90;;;;;;;7.36;89.42;97769.77;86021;1287;99926;-75
2022/11/16 07:05:15;;;;;;;166.40;92.00;;;;;;;7.36;89.11;97767.52;86398;1296;22485;-76
2022/11/16 07:07:20;;;;;;;171.90;89.70;;;;;;;7.37;88.92;97766.27;86150;1292;24179;-74
2022/11/16 07:09:22;;;;;;;163.90;86.20;;;;;;;7.36;89.05;97768.08;86066;1289;99688;-75
2022/11/16 07:11:24;;;;;;;166.70;87.30;;;;;;;7.35;89.31;97766.53;86055;1289;22532;-75
2022/11/16 07:13:25;;;;;;;162.10;85.90;;;;;;;7.35;89.14;97764.09;86256;1287;25225;-73
2022/11/16 07:15:28;;;;;;;165.50;84.80;;;;;;;7.33;89.12;97762.92;86090;1288;99579;-74
2022/11/16 07:17:32;;;;;;;132.00;72.60;;;;;;;7.31;88.93;97758.89;86037;1303;23065;-76
2022/11/16 07:19:35;;;;;;;136.80;77.80;;;;;;;7.27;88.76;97755.08;86084;1291;23415;-75
2022/11/16 07:21:37;;;;;;;138.50;74.90;;;;;;;7.25;88.89;97755.36;86445;1294;99714;-74
2022/11/16 07:23:39;;;;;;;131.70;75.20;;;;;;;7.21;88.95;97755.21;86226;1284;22509;-74
2022/11/16 07:25:45;;;;;;;139.40;74.60;;;;;;;7.18;88.93;97755.73;86158;1284;22917;-74
2022/11/16 07:27:47;;;;;;;117.40;70.90;;;;;;;7.16;88.84;97756.88;85728;1285;99542;-74
2022/11/16 07:29:49;;;;;;;131.90;73.70;;;;;;;7.14;88.68;97754.38;86108;1289;22462;-74
2022/11/16 07:31:53;;;;;;;131.70;71.60;;;;;;;7.11;88.72;97752.26;86369;1297;22521;-78
2022/11/16 07:33:55;;;;;;;133.50;74.50;;;;;;;7.08;88.56;97751.20;87228;1288;100118;-76
2022/11/16 07:36:10;;;;;;;135.90;73.20;;;;;;;7.04;88.97;97748.77;85972;1287;22559;-74
2022/11/16 07:38:13;;;;;;;136.00;72.10;;;;;;;7.02;88.89;97748.21;86229;1287;23363;-75
2022/11/16 07:40:15;;;;;;;113.10;64.30;;;;;;;7.00;88.61;97749.05;85800;1288;99716;-75
2022/11/16 07:42:16;;;;;;;127.40;71.00;;;;;;;6.97;88.70;97748.84;85914;1287;206684;-74
2022/11/16 07:44:19;;;;;;;132.10;70.90;;;;;;;6.93;88.62;97749.71;86368;1288;22513;-74
2022/11/16 07:46:22;;;;;;;126.90;69.10;;;;;;;6.92;88.79;97755.36;86189;1288;98453;-72
2022/11/16 07:48:26;;;;;;;136.00;73.60;;;;;;;6.92;88.96;97751.33;86006;1296;22700;-74
2022/11/16 07:50:28;;;;;;;145.90;74.30;;;;;;;6.94;89.14;97751.40;86133;1287;25853;-76
2022/11/16 07:52:30;;;;;;;140.20;73.20;;;;;;;6.96;89.22;97756.20;85882;1288;99573;-74
2022/11/16 07:54:33;;;;;;;124.90;66.20;;;;;;;6.95;89.29;97755.20;85923;1289;22503;-77
2022/11/16 07:56:35;;;;;;;127.50;68.90;;;;;;;6.96;89.20;97763.19;85876;1284;25396;-75
2022/11/16 07:58:38;;;;;;;121.40;66.20;;;;;;;6.95;88.89;97763.59;85993;1287;98961;-75
2022/11/16 08:00:40;;;;;;;126.70;67.20;;;;;;;6.95;89.00;97763.92;85953;1287;22481;-74
2022/11/16 08:02:42;;;;;;;137.10;63.90;;;;;;;6.96;89.19;97768.27;85968;1289;25368;-75
2022/11/16 08:04:44;;;;;;;127.40;64.50;;;;;;;6.94;89.19;97769.39;85894;1289;99549;-75
2022/11/16 08:06:46;;;;;;;112.80;61.70;;;;;;;6.92;89.04;97768.11;86008;1288;22932;-75
2022/11/16 08:08:48;;;;;;;126.20;63.00;;;;;;;6.93;88.84;97772.77;85931;1287;22611;-75
2022/11/16 08:10:49;;;;;;;121.50;63.60;;;;;;;6.92;89.16;97767.41;85844;1289;99584;-76
2022/11/16 08:12:52;;;;;;;125.80;67.10;;;;;;;6.92;88.98;97770.36;85844;1291;22544;-74
2022/11/16 08:14:53;;;;;;;136.00;74.20;;;;;;;6.94;89.41;97771.30;85847;1297;22475;-74
2022/11/16 08:16:55;;;;;;;124.30;61.50;;;;;;;6.95;89.24;97771.79;85802;1287;99582;-74
2022/11/16 08:18:58;;;;;;;100.10;49.40;;;;;;;6.93;89.21;97770.15;85872;1290;24752;-74
2022/11/16 08:21:03;;;;;;;83.60;43.90;;;;;;;6.86;89.02;97767.73;85957;1289;24480;-74
2022/11/16 08:23:05;;;;;;;72.40;40.10;;;;;;;6.79;88.95;97766.35;85873;1288;99161;-75
2022/11/16 08:25:07;;;;;;;80.90;39.60;;;;;;;6.72;89.04;97766.04;85926;1290;23318;-75
2022/11/16 08:27:08;;;;;;;79.50;39.20;;;;;;;6.65;89.12;97764.10;85844;1283;98550;-76
2022/11/16 08:29:10;;;;;;;78.10;40.10;;;;;;;6.60;88.84;97760.71;86272;1287;22612;-75
2022/11/16 08:31:19;;;;;;;58.60;34.90;;;;;;;6.55;88.86;97761.81;85780;1291;23338;-74
2022/11/16 08:33:22;;;;;;;66.80;36.80;;;;;;;6.50;88.74;97758.95;85869;1287;99567;-76
2022/11/16 08:35:24;;;;;;;77.10;44.30;;;;;;;6.44;88.85;97763.28;86111;1292;23853;-74
2022/11/16 08:37:27;;;;;;;69.20;37.20;;;;;;;6.38;88.88;97759.38;86029;1288;22932;-74
2022/11/16 08:39:28;;;;;;;59.80;32.80;;;;;;;6.35;88.82;97762.54;85959;1288;99496;-75
2022/11/16 08:41:30;;;;;;;60.60;35.00;;;;;;;6.31;88.83;97765.15;86093;1290;22766;-74
2022/11/16 08:43:32;;;;;;;60.50;33.10;;;;;;;6.30;89.02;97763.80;86023;1287;22519;-76
2022/11/16 08:45:34;;;;;;;62.10;31.70;;;;;;;6.28;88.81;97769.10;85924;1288;100839;-75
2022/11/16 08:47:36;;;;;;;55.10;29.90;;;;;;;6.25;89.06;97771.02;85765;1290;22833;-75
2022/11/16 08:49:37;;;;;;;48.50;30.30;;;;;;;6.20;88.75;97765.32;85842;1284;22674;-75
2022/11/16 08:51:39;;;;;;;50.40;29.70;;;;;;;6.19;89.06;97768.50;85899;1287;99224;-77
2022/11/16 08:53:41;;;;;;;47.20;28.90;;;;;;;6.18;88.95;97771.55;85973;1289;23277;-76
2022/11/16 08:55:44;;;;;;;55.40;28.70;;;;;;;6.15;89.00;97771.67;86080;1288;22608;-76
2022/11/16 08:57:45;;;;;;;45.50;27.60;;;;;;;6.17;88.98;97773.52;85970;1287;98648;-74
2022/11/16 08:59:49;;;;;;;43.20;26.50;;;;;;;6.15;88.71;97774.29;86153;1282;22507;-76
2022/11/16 09:01:51;;;;;;;54.60;28.50;;;;;;;6.15;89.06;97774.15;85940;1287;23288;-75
2022/11/16 09:03:54;;;;;;;42.40;25.50;;;;;;;6.13;89.10;97778.05;85887;1291;98663;-75
2022/11/16 09:05:58;;;;;;;43.60;25.50;;;;;;;6.12;88.82;97777.42;85941;1284;25648;-76
2022/11/16 09:07:59;;;;;;;42.90;24.30;;;;;;;6.11;88.96;97777.45;85891;1290;24372;-76
2022/11/16 09:10:01;;;;;;;37.00;23.50;;;;;;;6.04;89.01;97761.62;85922;1290;98915;-75
2022/11/16 09:12:03;;;;;;;34.80;20.70;;;;;;;6.10;89.03;97771.59;86011;1288;25233;-75
2022/11/16 09:14:05;;;;;;;35.20;20.50;;;;;;;6.06;88.77;97763.59;86272;1284;22607;-75
2022/11/16 09:16:07;;;;;;;30.00;19.70;;;;;;;6.04;88.94;97764.41;86223;1290;99515;-75
2022/11/16 09:18:09;;;;;;;31.80;18.70;;;;;;;6.01;88.90;97757.38;86092;1287;23085;-75
2022/11/16 09:20:10;;;;;;;35.50;21.90;;;;;;;6.00;89.08;97754.81;85942;1290;25414;-75
2022/11/16 09:22:12;;;;;;;34.40;20.10;;;;;;;6.01;88.99;97751.12;85869;1290;98590;-76
2022/11/16 09:24:14;;;;;;;34.40;18.40;;;;;;;6.00;88.99;97750.64;86004;1289;22821;-75
2022/11/16 09:26:20;;;;;;;30.20;18.50;;;;;;;5.97;88.86;97746.42;85857;1283;25299;-74
2022/11/16 09:28:21;;;;;;;30.60;18.00;;;;;;;5.95;88.99;97749.59;86064;1284;99871;-75
2022/11/16 09:30:23;;;;;;;24.40;17.50;;;;;;;5.94;89.10;97747.05;86052;1288;22732;-75
2022/11/16 09:32:25;;;;;;;32.50;19.90;;;;;;;5.94;88.80;97747.02;85920;1284;22601;-76
2022/11/16 09:34:28;;;;;;;29.10;18.30;;;;;;;5.95;88.91;97746.29;85714;1283;98696;-76
2022/11/16 09:36:30;;;;;;;27.20;17.70;;;;;;;5.96;89.20;97744.52;85874;1289;23083;-74
2022/11/16 09:38:39;;;;;;;24.00;16.40;;;;;;;5.94;89.03;97740.77;85986;1290;22660;-76
2022/11/16 09:40:45;;;;;;;27.30;17.90;;;;;;;5.94;88.94;97742.66;85886;1288;99594;-75
2022/11/16 09:43:05;;;;;;;26.80;17.30;;;;;;;5.94;89.13;97741.11;85953;1289;25514;-75
2022/11/16 09:45:35;;;;;;;28.80;18.00;;;;;;;5.95;89.04;97738.98;86008;1287;22499;-76
2022/11/16 09:47:47;;;;;;;23.90;16.70;;;;;;;5.96;89.14;97734.39;86002;1282;24025;-75
2022/11/16 09:49:54;;;;;;;25.20;17.50;;;;;;;5.96;89.14;97734.92;86074;1282;22637;-74
2022/11/16 09:52:01;;;;;;;27.60;17.40;;;;;;;5.98;89.23;97732.77;85810;1296;100481;-74
2022/11/16 09:54:03;;;;;;;22.60;15.30;;;;;;;5.99;88.92;97726.11;85908;1283;22560;-74
2022/11/16 09:56:12;;;;;;;24.40;16.60;;;;;;;5.98;89.06;97720.73;86071;1284;23791;-76
2022/11/16 09:58:40;;;;;;;23.80;15.70;;;;;;;5.98;89.11;97716.73;85824;1289;100082;-75
2022/11/16 10:00:52;;;;;;;20.80;15.00;;;;;;;5.98;88.99;97712.91;85894;1288;22592;-74
2022/11/16 10:03:14;;;;;;;22.10;14.90;;;;;;;5.97;88.99;97708.75;85951;1290;24868;-75
2022/11/16 10:05:21;;;;;;;25.50;16.60;;;;;;;5.96;89.01;97702.84;85956;1287;99421;-74
2022/11/16 10:07:30;;;;;;;20.40;14.00;;;;;;;5.99;89.06;97700.32;86087;1287;22505;-75
2022/11/16 10:09:33;;;;;;;21.20;14.60;;;;;;;5.95;89.03;97695.89;85888;1281;100116;-74
2022/11/16 10:11:59;;;;;;;22.60;16.00;;;;;;;5.94;89.09;97693.50;86139;1296;22490;-76
2022/11/16 10:14:15;;;;;;;19.80;14.50;;;;;;;5.96;89.10;97691.14;86838;1289;24241;-74
2022/11/16 10:16:34;;;;;;;18.80;14.60;;;;;;;5.97;88.98;97684.48;87578;1291;99481;-75